sensor_id;sensor_type;location;lat;lon;timestamp;P1;durP1;ratioP1;P2;durP2;ratioP2
18818;SDS011;9537;45.594;9.294;2023-07-30T00:00:19;3.60;;;1.23;;
18818;SDS011;9537;45.594;9.294;2023-07-30T00:01:20;3.03;;;0.85;;
18818;SDS011;9537;45.594;9.294;2023-07-30T00:02:22;0.88;;;0.80;;
18818;SDS011;9537;45.594;9.294;2023-07-30T00:03:24;1.08;;;0.98;;
18818;SDS011;9537;45.594;9.294;2023-07-30T00:04:25;1.67;;;1.00;;
18818;SDS011;9537;45.594;9.294;2023-07-30T00:05:26;1.95;;;1.15;;
18818;SDS011;9537;45.594;9.294;2023-07-30T00:06:27;2.78;;;1.40;;
18818;SDS011;9537;45.594;9.294;2023-07-30T00:07:29;2.83;;;1.05;;
18818;SDS011;9537;45.594;9.294;2023-07-30T00:08:30;1.70;;;1.20;;
18818;SDS011;9537;45.594;9.294;2023-07-30T00:09:31;1.30;;;0.90;;
18818;SDS011;9537;45.594;9.294;2023-07-30T00:10:32;1.23;;;0.85;;
18818;SDS011;9537;45.594;9.294;2023-07-30T00:11:34;2.35;;;1.42;;
18818;SDS011;9537;45.594;9.294;2023-07-30T00:12:34;2.42;;;1.13;;
18818;SDS011;9537;45.594;9.294;2023-07-30T00:13:36;1.85;;;1.10;;
18818;SDS011;9537;45.594;9.294;2023-07-30T00:14:37;2.00;;;1.35;;
18818;SDS011;9537;45.594;9.294;2023-07-30T00:15:39;1.88;;;1.25;;
18818;SDS011;9537;45.594;9.294;2023-07-30T00:16:39;2.25;;;1.60;;
18818;SDS011;9537;45.594;9.294;2023-07-30T00:17:42;2.03;;;0.95;;
18818;SDS011;9537;45.594;9.294;2023-07-30T00:18:43;1.40;;;1.10;;
18818;SDS011;9537;45.594;9.294;2023-07-30T00:19:44;1.85;;;1.15;;
18818;SDS011;9537;45.594;9.294;2023-07-30T00:20:46;1.45;;;1.10;;
18818;SDS011;9537;45.594;9.294;2023-07-30T00:21:46;1.33;;;0.82;;
18818;SDS011;9537;45.594;9.294;2023-07-30T00:22:48;1.83;;;1.20;;
18818;SDS011;9537;45.594;9.294;2023-07-30T00:23:49;2.33;;;1.27;;
18818;SDS011;9537;45.594;9.294;2023-07-30T00:24:51;1.83;;;1.00;;
18818;SDS011;9537;45.594;9.294;2023-07-30T00:25:51;1.20;;;1.10;;
18818;SDS011;9537;45.594;9.294;2023-07-30T00:26:53;2.17;;;1.33;;
18818;SDS011;9537;45.594;9.294;2023-07-30T00:27:54;1.60;;;1.13;;
18818;SDS011;9537;45.594;9.294;2023-07-30T00:28:55;1.73;;;1.30;;
18818;SDS011;9537;45.594;9.294;2023-07-30T00:29:56;1.65;;;1.13;;
18818;SDS011;9537;45.594;9.294;2023-07-30T00:30:58;1.55;;;1.25;;
18818;SDS011;9537;45.594;9.294;2023-07-30T00:31:58;2.97;;;1.00;;
18818;SDS011;9537;45.594;9.294;2023-07-30T00:33:01;2.13;;;1.30;;
18818;SDS011;9537;45.594;9.294;2023-07-30T00:34:02;2.75;;;1.38;;
18818;SDS011;9537;45.594;9.294;2023-07-30T00:35:03;1.52;;;0.85;;
18818;SDS011;9537;45.594;9.294;2023-07-30T00:36:05;1.60;;;0.95;;
18818;SDS011;9537;45.594;9.294;2023-07-30T00:37:06;1.05;;;0.93;;
18818;SDS011;9537;45.594;9.294;2023-07-30T00:38:08;2.25;;;1.10;;
18818;SDS011;9537;45.594;9.294;2023-07-30T00:39:08;1.75;;;1.30;;
18818;SDS011;9537;45.594;9.294;2023-07-30T00:40:12;2.28;;;1.45;;
18818;SDS011;9537;45.594;9.294;2023-07-30T00:41:12;1.20;;;1.10;;
18818;SDS011;9537;45.594;9.294;2023-07-30T00:42:14;1.55;;;1.27;;
18818;SDS011;9537;45.594;9.294;2023-07-30T00:43:15;1.88;;;1.40;;
18818;SDS011;9537;45.594;9.294;2023-07-30T00:44:16;2.28;;;1.60;;
18818;SDS011;9537;45.594;9.294;2023-07-30T00:45:17;1.50;;;1.40;;
18818;SDS011;9537;45.594;9.294;2023-07-30T00:46:19;1.85;;;1.40;;
18818;SDS011;9537;45.594;9.294;2023-07-30T00:47:20;1.90;;;1.50;;
18818;SDS011;9537;45.594;9.294;2023-07-30T00:48:24;1.63;;;1.10;;
18818;SDS011;9537;45.594;9.294;2023-07-30T00:49:25;3.47;;;1.50;;
18818;SDS011;9537;45.594;9.294;2023-07-30T00:50:27;2.20;;;1.23;;
18818;SDS011;9537;45.594;9.294;2023-07-30T00:51:28;1.77;;;1.30;;
18818;SDS011;9537;45.594;9.294;2023-07-30T00:52:33;3.22;;;1.30;;
18818;SDS011;9537;45.594;9.294;2023-07-30T00:53:35;2.33;;;1.50;;
18818;SDS011;9537;45.594;9.294;2023-07-30T00:54:37;1.75;;;1.25;;
18818;SDS011;9537;45.594;9.294;2023-07-30T00:55:39;1.90;;;1.50;;
18818;SDS011;9537;45.594;9.294;2023-07-30T00:56:41;1.52;;;1.05;;
18818;SDS011;9537;45.594;9.294;2023-07-30T00:57:49;1.33;;;1.20;;
18818;SDS011;9537;45.594;9.294;2023-07-30T00:58:51;1.65;;;1.10;;
18818;SDS011;9537;45.594;9.294;2023-07-30T00:59:53;2.67;;;1.40;;
18818;SDS011;9537;45.594;9.294;2023-07-30T01:00:55;3.75;;;1.70;;
18818;SDS011;9537;45.594;9.294;2023-07-30T01:01:56;1.80;;;1.45;;
18818;SDS011;9537;45.594;9.294;2023-07-30T01:03:00;2.03;;;1.23;;
18818;SDS011;9537;45.594;9.294;2023-07-30T01:04:02;2.97;;;1.42;;
18818;SDS011;9537;45.594;9.294;2023-07-30T01:05:05;2.13;;;1.42;;
18818;SDS011;9537;45.594;9.294;2023-07-30T01:06:06;3.10;;;1.40;;
18818;SDS011;9537;45.594;9.294;2023-07-30T01:07:08;1.63;;;1.38;;
18818;SDS011;9537;45.594;9.294;2023-07-30T01:08:09;2.10;;;1.38;;
18818;SDS011;9537;45.594;9.294;2023-07-30T01:09:11;2.40;;;1.60;;
18818;SDS011;9537;45.594;9.294;2023-07-30T01:10:12;1.63;;;1.52;;
18818;SDS011;9537;45.594;9.294;2023-07-30T01:11:14;2.05;;;1.80;;
18818;SDS011;9537;45.594;9.294;2023-07-30T01:12:15;2.05;;;1.85;;
18818;SDS011;9537;45.594;9.294;2023-07-30T01:13:17;1.63;;;1.45;;
18818;SDS011;9537;45.594;9.294;2023-07-30T01:14:18;2.53;;;1.60;;
18818;SDS011;9537;45.594;9.294;2023-07-30T01:15:21;1.80;;;1.60;;
18818;SDS011;9537;45.594;9.294;2023-07-30T01:16:22;2.05;;;1.70;;
18818;SDS011;9537;45.594;9.294;2023-07-30T01:17:24;4.25;;;2.00;;
18818;SDS011;9537;45.594;9.294;2023-07-30T01:18:25;1.73;;;1.50;;
18818;SDS011;9537;45.594;9.294;2023-07-30T01:19:28;1.55;;;1.45;;
18818;SDS011;9537;45.594;9.294;2023-07-30T01:20:29;3.72;;;1.77;;
18818;SDS011;9537;45.594;9.294;2023-07-30T01:21:33;1.73;;;1.35;;
18818;SDS011;9537;45.594;9.294;2023-07-30T01:22:33;1.92;;;1.67;;
18818;SDS011;9537;45.594;9.294;2023-07-30T01:23:35;2.33;;;1.95;;
18818;SDS011;9537;45.594;9.294;2023-07-30T01:24:36;2.20;;;1.50;;
18818;SDS011;9537;45.594;9.294;2023-07-30T01:25:37;1.58;;;1.48;;
18818;SDS011;9537;45.594;9.294;2023-07-30T01:26:40;2.00;;;1.52;;
18818;SDS011;9537;45.594;9.294;2023-07-30T01:27:44;1.85;;;1.40;;
18818;SDS011;9537;45.594;9.294;2023-07-30T01:28:51;4.72;;;1.80;;
18818;SDS011;9537;45.594;9.294;2023-07-30T01:29:55;2.03;;;1.70;;
18818;SDS011;9537;45.594;9.294;2023-07-30T01:31:04;3.30;;;1.58;;
18818;SDS011;9537;45.594;9.294;2023-07-30T01:32:07;4.13;;;1.70;;
18818;SDS011;9537;45.594;9.294;2023-07-30T01:33:12;3.90;;;2.45;;
18818;SDS011;9537;45.594;9.294;2023-07-30T01:34:13;3.15;;;1.95;;
18818;SDS011;9537;45.594;9.294;2023-07-30T01:35:15;2.17;;;1.95;;
18818;SDS011;9537;45.594;9.294;2023-07-30T01:36:18;2.22;;;1.98;;
18818;SDS011;9537;45.594;9.294;2023-07-30T01:37:22;1.70;;;1.60;;
18818;SDS011;9537;45.594;9.294;2023-07-30T01:38:25;1.60;;;1.50;;
18818;SDS011;9537;45.594;9.294;2023-07-30T01:39:28;1.75;;;1.50;;
18818;SDS011;9537;45.594;9.294;2023-07-30T01:40:29;2.20;;;1.63;;
18818;SDS011;9537;45.594;9.294;2023-07-30T01:41:31;2.42;;;1.60;;
18818;SDS011;9537;45.594;9.294;2023-07-30T01:42:32;3.88;;;1.90;;
18818;SDS011;9537;45.594;9.294;2023-07-30T01:43:34;2.30;;;1.60;;
18818;SDS011;9537;45.594;9.294;2023-07-30T01:44:34;2.35;;;1.60;;
18818;SDS011;9537;45.594;9.294;2023-07-30T01:45:36;3.15;;;1.60;;
18818;SDS011;9537;45.594;9.294;2023-07-30T01:46:37;2.13;;;1.50;;
18818;SDS011;9537;45.594;9.294;2023-07-30T01:47:38;2.75;;;1.50;;
18818;SDS011;9537;45.594;9.294;2023-07-30T01:48:39;1.77;;;1.58;;
18818;SDS011;9537;45.594;9.294;2023-07-30T01:49:41;2.40;;;1.98;;
18818;SDS011;9537;45.594;9.294;2023-07-30T01:50:42;3.45;;;1.83;;
18818;SDS011;9537;45.594;9.294;2023-07-30T01:51:47;2.92;;;1.90;;
18818;SDS011;9537;45.594;9.294;2023-07-30T01:52:49;3.83;;;2.28;;
18818;SDS011;9537;45.594;9.294;2023-07-30T01:53:51;2.83;;;1.80;;
18818;SDS011;9537;45.594;9.294;2023-07-30T01:54:52;2.58;;;1.85;;
18818;SDS011;9537;45.594;9.294;2023-07-30T01:55:56;2.88;;;1.90;;
18818;SDS011;9537;45.594;9.294;2023-07-30T01:56:56;3.30;;;2.38;;
18818;SDS011;9537;45.594;9.294;2023-07-30T01:57:58;3.63;;;1.70;;
18818;SDS011;9537;45.594;9.294;2023-07-30T01:58:59;2.53;;;1.70;;
18818;SDS011;9537;45.594;9.294;2023-07-30T02:00:00;3.22;;;2.17;;
18818;SDS011;9537;45.594;9.294;2023-07-30T02:01:01;4.45;;;1.80;;
18818;SDS011;9537;45.594;9.294;2023-07-30T02:02:03;4.22;;;2.00;;
18818;SDS011;9537;45.594;9.294;2023-07-30T02:03:04;2.30;;;2.10;;
18818;SDS011;9537;45.594;9.294;2023-07-30T02:04:05;1.90;;;1.80;;
18818;SDS011;9537;45.594;9.294;2023-07-30T02:05:06;2.83;;;1.83;;
18818;SDS011;9537;45.594;9.294;2023-07-30T02:06:07;2.80;;;1.67;;
18818;SDS011;9537;45.594;9.294;2023-07-30T02:07:10;1.80;;;1.70;;
18818;SDS011;9537;45.594;9.294;2023-07-30T02:08:12;1.60;;;1.50;;
18818;SDS011;9537;45.594;9.294;2023-07-30T02:09:16;1.85;;;1.65;;
18818;SDS011;9537;45.594;9.294;2023-07-30T02:10:16;1.92;;;1.80;;
18818;SDS011;9537;45.594;9.294;2023-07-30T02:11:18;2.83;;;1.88;;
18818;SDS011;9537;45.594;9.294;2023-07-30T02:12:19;2.97;;;1.77;;
18818;SDS011;9537;45.594;9.294;2023-07-30T02:13:20;1.60;;;1.50;;
18818;SDS011;9537;45.594;9.294;2023-07-30T02:14:21;1.95;;;1.80;;
18818;SDS011;9537;45.594;9.294;2023-07-30T02:15:23;2.85;;;1.60;;
18818;SDS011;9537;45.594;9.294;2023-07-30T02:16:24;2.15;;;1.70;;
18818;SDS011;9537;45.594;9.294;2023-07-30T02:17:25;2.92;;;1.88;;
18818;SDS011;9537;45.594;9.294;2023-07-30T02:18:26;1.83;;;1.73;;
18818;SDS011;9537;45.594;9.294;2023-07-30T02:19:28;1.90;;;1.80;;
18818;SDS011;9537;45.594;9.294;2023-07-30T02:20:28;1.80;;;1.70;;
18818;SDS011;9537;45.594;9.294;2023-07-30T02:21:30;1.80;;;1.70;;
18818;SDS011;9537;45.594;9.294;2023-07-30T02:22:32;2.35;;;1.70;;
18818;SDS011;9537;45.594;9.294;2023-07-30T02:23:35;2.08;;;1.50;;
18818;SDS011;9537;45.594;9.294;2023-07-30T02:24:36;1.73;;;1.58;;
18818;SDS011;9537;45.594;9.294;2023-07-30T02:25:38;2.00;;;1.52;;
18818;SDS011;9537;45.594;9.294;2023-07-30T02:26:38;2.22;;;1.48;;
18818;SDS011;9537;45.594;9.294;2023-07-30T02:27:40;1.80;;;1.70;;
18818;SDS011;9537;45.594;9.294;2023-07-30T02:28:41;2.10;;;1.90;;
18818;SDS011;9537;45.594;9.294;2023-07-30T02:29:43;1.60;;;1.50;;
18818;SDS011;9537;45.594;9.294;2023-07-30T02:30:44;2.22;;;1.80;;
18818;SDS011;9537;45.594;9.294;2023-07-30T02:31:45;2.67;;;2.08;;
18818;SDS011;9537;45.594;9.294;2023-07-30T02:32:46;2.30;;;2.10;;
18818;SDS011;9537;45.594;9.294;2023-07-30T02:33:48;1.75;;;1.40;;
18818;SDS011;9537;45.594;9.294;2023-07-30T02:34:49;1.95;;;1.67;;
18818;SDS011;9537;45.594;9.294;2023-07-30T02:35:50;2.95;;;1.90;;
18818;SDS011;9537;45.594;9.294;2023-07-30T02:36:51;4.35;;;2.10;;
18818;SDS011;9537;45.594;9.294;2023-07-30T02:37:53;1.98;;;1.77;;
18818;SDS011;9537;45.594;9.294;2023-07-30T02:38:55;4.30;;;1.90;;
18818;SDS011;9537;45.594;9.294;2023-07-30T02:39:56;1.95;;;1.80;;
18818;SDS011;9537;45.594;9.294;2023-07-30T02:40:57;2.22;;;1.95;;
18818;SDS011;9537;45.594;9.294;2023-07-30T02:41:59;2.03;;;1.80;;
18818;SDS011;9537;45.594;9.294;2023-07-30T02:42:59;2.75;;;1.98;;
18818;SDS011;9537;45.594;9.294;2023-07-30T02:44:01;6.53;;;2.10;;
18818;SDS011;9537;45.594;9.294;2023-07-30T02:45:03;2.78;;;1.77;;
18818;SDS011;9537;45.594;9.294;2023-07-30T02:46:05;3.55;;;2.10;;
18818;SDS011;9537;45.594;9.294;2023-07-30T02:47:07;2.35;;;1.70;;
18818;SDS011;9537;45.594;9.294;2023-07-30T02:48:08;2.55;;;1.63;;
18818;SDS011;9537;45.594;9.294;2023-07-30T02:49:09;2.30;;;2.00;;
18818;SDS011;9537;45.594;9.294;2023-07-30T02:50:11;2.30;;;2.10;;
18818;SDS011;9537;45.594;9.294;2023-07-30T02:51:11;1.95;;;1.85;;
18818;SDS011;9537;45.594;9.294;2023-07-30T02:52:13;1.52;;;1.40;;
18818;SDS011;9537;45.594;9.294;2023-07-30T02:53:14;3.15;;;1.35;;
18818;SDS011;9537;45.594;9.294;2023-07-30T02:54:17;1.42;;;1.33;;
18818;SDS011;9537;45.594;9.294;2023-07-30T02:55:20;1.52;;;1.40;;
18818;SDS011;9537;45.594;9.294;2023-07-30T02:56:22;2.13;;;1.50;;
18818;SDS011;9537;45.594;9.294;2023-07-30T02:57:23;1.38;;;1.27;;
18818;SDS011;9537;45.594;9.294;2023-07-30T02:58:25;1.70;;;1.60;;
18818;SDS011;9537;45.594;9.294;2023-07-30T02:59:25;2.10;;;1.85;;
18818;SDS011;9537;45.594;9.294;2023-07-30T03:00:27;2.30;;;1.90;;
18818;SDS011;9537;45.594;9.294;2023-07-30T03:01:28;2.00;;;1.80;;
18818;SDS011;9537;45.594;9.294;2023-07-30T03:02:29;2.88;;;1.98;;
18818;SDS011;9537;45.594;9.294;2023-07-30T03:03:30;2.10;;;1.63;;
18818;SDS011;9537;45.594;9.294;2023-07-30T03:04:32;3.13;;;1.90;;
18818;SDS011;9537;45.594;9.294;2023-07-30T03:05:33;1.75;;;1.63;;
18818;SDS011;9537;45.594;9.294;2023-07-30T03:06:35;1.75;;;1.63;;
18818;SDS011;9537;45.594;9.294;2023-07-30T03:07:36;1.85;;;1.65;;
18818;SDS011;9537;45.594;9.294;2023-07-30T03:08:37;1.67;;;1.58;;
18818;SDS011;9537;45.594;9.294;2023-07-30T03:09:40;1.83;;;1.73;;
18818;SDS011;9537;45.594;9.294;2023-07-30T03:10:41;2.13;;;1.90;;
18818;SDS011;9537;45.594;9.294;2023-07-30T03:11:42;1.63;;;1.52;;
18818;SDS011;9537;45.594;9.294;2023-07-30T03:12:44;1.40;;;1.30;;
18818;SDS011;9537;45.594;9.294;2023-07-30T03:13:45;2.72;;;1.60;;
18818;SDS011;9537;45.594;9.294;2023-07-30T03:14:46;2.60;;;1.83;;
18818;SDS011;9537;45.594;9.294;2023-07-30T03:15:47;2.90;;;2.05;;
18818;SDS011;9537;45.594;9.294;2023-07-30T03:16:48;2.03;;;1.85;;
18818;SDS011;9537;45.594;9.294;2023-07-30T03:17:49;1.92;;;1.73;;
18818;SDS011;9537;45.594;9.294;2023-07-30T03:18:51;2.95;;;1.90;;
18818;SDS011;9537;45.594;9.294;2023-07-30T03:19:52;3.40;;;2.05;;
18818;SDS011;9537;45.594;9.294;2023-07-30T03:20:57;2.25;;;2.05;;
18818;SDS011;9537;45.594;9.294;2023-07-30T03:21:59;2.33;;;2.13;;
18818;SDS011;9537;45.594;9.294;2023-07-30T03:23:00;2.50;;;2.30;;
18818;SDS011;9537;45.594;9.294;2023-07-30T03:24:01;1.85;;;1.75;;
18818;SDS011;9537;45.594;9.294;2023-07-30T03:25:04;5.35;;;2.60;;
18818;SDS011;9537;45.594;9.294;2023-07-30T03:26:06;1.85;;;1.75;;
18818;SDS011;9537;45.594;9.294;2023-07-30T03:27:07;2.53;;;2.15;;
18818;SDS011;9537;45.594;9.294;2023-07-30T03:28:08;2.20;;;2.00;;
18818;SDS011;9537;45.594;9.294;2023-07-30T03:29:09;2.47;;;2.03;;
18818;SDS011;9537;45.594;9.294;2023-07-30T03:30:11;3.38;;;2.15;;
18818;SDS011;9537;45.594;9.294;2023-07-30T03:31:11;3.00;;;2.50;;
18818;SDS011;9537;45.594;9.294;2023-07-30T03:32:13;4.32;;;2.53;;
18818;SDS011;9537;45.594;9.294;2023-07-30T03:33:14;2.97;;;2.67;;
18818;SDS011;9537;45.594;9.294;2023-07-30T03:34:16;2.58;;;2.38;;
18818;SDS011;9537;45.594;9.294;2023-07-30T03:35:16;4.70;;;2.85;;
18818;SDS011;9537;45.594;9.294;2023-07-30T03:36:18;3.58;;;2.30;;
18818;SDS011;9537;45.594;9.294;2023-07-30T03:37:20;2.40;;;2.20;;
18818;SDS011;9537;45.594;9.294;2023-07-30T03:38:21;2.75;;;2.05;;
18818;SDS011;9537;45.594;9.294;2023-07-30T03:39:22;2.22;;;2.03;;
18818;SDS011;9537;45.594;9.294;2023-07-30T03:40:24;3.45;;;1.88;;
18818;SDS011;9537;45.594;9.294;2023-07-30T03:41:26;3.45;;;1.70;;
18818;SDS011;9537;45.594;9.294;2023-07-30T03:42:27;1.75;;;1.65;;
18818;SDS011;9537;45.594;9.294;2023-07-30T03:43:28;1.75;;;1.65;;
18818;SDS011;9537;45.594;9.294;2023-07-30T03:44:29;1.65;;;1.50;;
18818;SDS011;9537;45.594;9.294;2023-07-30T03:45:31;3.42;;;2.15;;
18818;SDS011;9537;45.594;9.294;2023-07-30T03:46:33;2.35;;;2.05;;
18818;SDS011;9537;45.594;9.294;2023-07-30T03:47:34;2.22;;;2.03;;
18818;SDS011;9537;45.594;9.294;2023-07-30T03:48:35;3.65;;;2.67;;
18818;SDS011;9537;45.594;9.294;2023-07-30T03:49:38;2.47;;;2.28;;
18818;SDS011;9537;45.594;9.294;2023-07-30T03:50:39;2.47;;;2.10;;
18818;SDS011;9537;45.594;9.294;2023-07-30T03:51:40;3.58;;;2.22;;
18818;SDS011;9537;45.594;9.294;2023-07-30T03:52:41;2.63;;;2.42;;
18818;SDS011;9537;45.594;9.294;2023-07-30T03:53:43;1.98;;;1.88;;
18818;SDS011;9537;45.594;9.294;2023-07-30T03:54:44;1.98;;;1.70;;
18818;SDS011;9537;45.594;9.294;2023-07-30T03:55:47;1.77;;;1.67;;
18818;SDS011;9537;45.594;9.294;2023-07-30T03:56:48;1.85;;;1.75;;
18818;SDS011;9537;45.594;9.294;2023-07-30T03:57:49;1.83;;;1.73;;
18818;SDS011;9537;45.594;9.294;2023-07-30T03:58:50;2.53;;;2.15;;
18818;SDS011;9537;45.594;9.294;2023-07-30T03:59:52;2.95;;;2.75;;
18818;SDS011;9537;45.594;9.294;2023-07-30T04:00:52;2.03;;;1.90;;
18818;SDS011;9537;45.594;9.294;2023-07-30T04:01:54;2.95;;;2.72;;
18818;SDS011;9537;45.594;9.294;2023-07-30T04:02:55;2.83;;;2.63;;
18818;SDS011;9537;45.594;9.294;2023-07-30T04:03:57;2.45;;;2.22;;
18818;SDS011;9537;45.594;9.294;2023-07-30T04:04:57;2.60;;;1.80;;
18818;SDS011;9537;45.594;9.294;2023-07-30T04:05:59;2.60;;;2.40;;
18818;SDS011;9537;45.594;9.294;2023-07-30T04:07:00;2.33;;;2.08;;
18818;SDS011;9537;45.594;9.294;2023-07-30T04:08:02;1.60;;;1.50;;
18818;SDS011;9537;45.594;9.294;2023-07-30T04:09:03;1.27;;;1.23;;
18818;SDS011;9537;45.594;9.294;2023-07-30T04:10:05;1.33;;;1.23;;
18818;SDS011;9537;45.594;9.294;2023-07-30T04:11:07;1.40;;;1.30;;
18818;SDS011;9537;45.594;9.294;2023-07-30T04:12:09;1.15;;;1.05;;
18818;SDS011;9537;45.594;9.294;2023-07-30T04:13:10;0.90;;;0.90;;
18818;SDS011;9537;45.594;9.294;2023-07-30T04:14:12;1.05;;;1.02;;
18818;SDS011;9537;45.594;9.294;2023-07-30T04:15:12;1.20;;;1.20;;
18818;SDS011;9537;45.594;9.294;2023-07-30T04:16:14;1.15;;;1.10;;
18818;SDS011;9537;45.594;9.294;2023-07-30T04:17:15;1.25;;;1.17;;
18818;SDS011;9537;45.594;9.294;2023-07-30T04:18:16;1.30;;;1.20;;
18818;SDS011;9537;45.594;9.294;2023-07-30T04:19:17;1.30;;;1.20;;
18818;SDS011;9537;45.594;9.294;2023-07-30T04:20:18;1.40;;;1.30;;
18818;SDS011;9537;45.594;9.294;2023-07-30T04:21:20;1.08;;;1.08;;
18818;SDS011;9537;45.594;9.294;2023-07-30T04:22:21;2.08;;;1.40;;
18818;SDS011;9537;45.594;9.294;2023-07-30T04:23:24;1.80;;;1.70;;
18818;SDS011;9537;45.594;9.294;2023-07-30T04:24:24;2.60;;;1.70;;
18818;SDS011;9537;45.594;9.294;2023-07-30T04:25:27;1.75;;;1.65;;
18818;SDS011;9537;45.594;9.294;2023-07-30T04:26:29;2.95;;;1.70;;
18818;SDS011;9537;45.594;9.294;2023-07-30T04:27:31;2.08;;;1.88;;
18818;SDS011;9537;45.594;9.294;2023-07-30T04:28:31;2.40;;;2.20;;
18818;SDS011;9537;45.594;9.294;2023-07-30T04:29:33;2.90;;;2.40;;
18818;SDS011;9537;45.594;9.294;2023-07-30T04:30:34;1.65;;;1.55;;
18818;SDS011;9537;45.594;9.294;2023-07-30T04:31:36;1.60;;;1.50;;
18818;SDS011;9537;45.594;9.294;2023-07-30T04:32:36;1.45;;;1.30;;
18818;SDS011;9537;45.594;9.294;2023-07-30T04:33:38;1.63;;;1.27;;
18818;SDS011;9537;45.594;9.294;2023-07-30T04:34:39;1.30;;;1.20;;
18818;SDS011;9537;45.594;9.294;2023-07-30T04:35:41;2.20;;;1.20;;
18818;SDS011;9537;45.594;9.294;2023-07-30T04:36:42;1.33;;;1.17;;
18818;SDS011;9537;45.594;9.294;2023-07-30T04:37:42;2.00;;;1.88;;
18818;SDS011;9537;45.594;9.294;2023-07-30T04:38:44;2.67;;;1.45;;
18818;SDS011;9537;45.594;9.294;2023-07-30T04:39:45;5.70;;;1.80;;
18818;SDS011;9537;45.594;9.294;2023-07-30T04:40:46;3.15;;;1.55;;
18818;SDS011;9537;45.594;9.294;2023-07-30T04:41:48;2.90;;;1.73;;
18818;SDS011;9537;45.594;9.294;2023-07-30T04:42:50;3.15;;;2.05;;
18818;SDS011;9537;45.594;9.294;2023-07-30T04:43:51;1.80;;;1.70;;
18818;SDS011;9537;45.594;9.294;2023-07-30T04:44:52;2.30;;;2.05;;
18818;SDS011;9537;45.594;9.294;2023-07-30T04:45:53;2.60;;;2.40;;
18818;SDS011;9537;45.594;9.294;2023-07-30T04:46:55;2.40;;;2.20;;
18818;SDS011;9537;45.594;9.294;2023-07-30T04:47:55;4.47;;;2.60;;
18818;SDS011;9537;45.594;9.294;2023-07-30T04:48:57;3.20;;;2.90;;
18818;SDS011;9537;45.594;9.294;2023-07-30T04:49:58;4.15;;;2.70;;
18818;SDS011;9537;45.594;9.294;2023-07-30T04:51:00;5.95;;;2.80;;
18818;SDS011;9537;45.594;9.294;2023-07-30T04:52:00;2.50;;;2.17;;
18818;SDS011;9537;45.594;9.294;2023-07-30T04:53:02;4.53;;;2.20;;
18818;SDS011;9537;45.594;9.294;2023-07-30T04:54:03;2.25;;;2.08;;
18818;SDS011;9537;45.594;9.294;2023-07-30T04:55:05;3.35;;;2.13;;
18818;SDS011;9537;45.594;9.294;2023-07-30T04:56:07;4.88;;;1.98;;
18818;SDS011;9537;45.594;9.294;2023-07-30T04:57:10;2.60;;;2.40;;
18818;SDS011;9537;45.594;9.294;2023-07-30T04:58:10;4.10;;;2.58;;
18818;SDS011;9537;45.594;9.294;2023-07-30T04:59:12;3.05;;;2.60;;
18818;SDS011;9537;45.594;9.294;2023-07-30T05:00:13;3.28;;;2.72;;
18818;SDS011;9537;45.594;9.294;2023-07-30T05:01:15;2.65;;;2.40;;
18818;SDS011;9537;45.594;9.294;2023-07-30T05:02:15;7.95;;;3.05;;
18818;SDS011;9537;45.594;9.294;2023-07-30T05:03:17;3.65;;;2.80;;
18818;SDS011;9537;45.594;9.294;2023-07-30T05:04:18;3.38;;;2.60;;
18818;SDS011;9537;45.594;9.294;2023-07-30T05:05:19;3.00;;;2.70;;
18818;SDS011;9537;45.594;9.294;2023-07-30T05:06:22;4.63;;;2.58;;
18818;SDS011;9537;45.594;9.294;2023-07-30T05:07:23;4.03;;;3.15;;
18818;SDS011;9537;45.594;9.294;2023-07-30T05:08:25;3.17;;;2.88;;
18818;SDS011;9537;45.594;9.294;2023-07-30T05:09:25;4.75;;;2.80;;
18818;SDS011;9537;45.594;9.294;2023-07-30T05:10:27;2.97;;;2.50;;
18818;SDS011;9537;45.594;9.294;2023-07-30T05:11:28;3.53;;;2.72;;
18818;SDS011;9537;45.594;9.294;2023-07-30T05:12:31;3.85;;;3.00;;
18818;SDS011;9537;45.594;9.294;2023-07-30T05:13:32;3.08;;;2.50;;
18818;SDS011;9537;45.594;9.294;2023-07-30T05:14:33;2.90;;;2.60;;
18818;SDS011;9537;45.594;9.294;2023-07-30T05:15:34;2.78;;;2.58;;
18818;SDS011;9537;45.594;9.294;2023-07-30T05:16:36;3.95;;;2.58;;
18818;SDS011;9537;45.594;9.294;2023-07-30T05:17:37;4.05;;;2.65;;
18818;SDS011;9537;45.594;9.294;2023-07-30T05:18:39;3.05;;;2.75;;
18818;SDS011;9537;45.594;9.294;2023-07-30T05:19:40;3.28;;;2.80;;
18818;SDS011;9537;45.594;9.294;2023-07-30T05:20:41;3.75;;;2.88;;
18818;SDS011;9537;45.594;9.294;2023-07-30T05:21:42;5.53;;;2.97;;
18818;SDS011;9537;45.594;9.294;2023-07-30T05:22:44;3.10;;;2.80;;
18818;SDS011;9537;45.594;9.294;2023-07-30T05:23:45;4.35;;;3.20;;
18818;SDS011;9537;45.594;9.294;2023-07-30T05:24:46;3.28;;;2.97;;
18818;SDS011;9537;45.594;9.294;2023-07-30T05:25:47;3.35;;;3.03;;
18818;SDS011;9537;45.594;9.294;2023-07-30T05:26:49;3.58;;;3.13;;
18818;SDS011;9537;45.594;9.294;2023-07-30T05:27:51;4.63;;;3.20;;
18818;SDS011;9537;45.594;9.294;2023-07-30T05:28:53;4.03;;;3.30;;
18818;SDS011;9537;45.594;9.294;2023-07-30T05:29:53;3.63;;;3.22;;
18818;SDS011;9537;45.594;9.294;2023-07-30T05:30:55;6.05;;;3.50;;
18818;SDS011;9537;45.594;9.294;2023-07-30T05:31:56;4.20;;;3.50;;
18818;SDS011;9537;45.594;9.294;2023-07-30T05:32:58;4.05;;;3.15;;
18818;SDS011;9537;45.594;9.294;2023-07-30T05:33:58;4.32;;;3.30;;
18818;SDS011;9537;45.594;9.294;2023-07-30T05:35:00;5.93;;;3.45;;
18818;SDS011;9537;45.594;9.294;2023-07-30T05:36:02;5.70;;;3.70;;
18818;SDS011;9537;45.594;9.294;2023-07-30T05:37:04;3.30;;;3.00;;
18818;SDS011;9537;45.594;9.294;2023-07-30T05:38:04;4.55;;;3.40;;
18818;SDS011;9537;45.594;9.294;2023-07-30T05:39:06;4.40;;;3.65;;
18818;SDS011;9537;45.594;9.294;2023-07-30T05:40:07;5.47;;;3.53;;
18818;SDS011;9537;45.594;9.294;2023-07-30T05:41:09;3.75;;;3.40;;
18818;SDS011;9537;45.594;9.294;2023-07-30T05:42:10;5.55;;;3.22;;
18818;SDS011;9537;45.594;9.294;2023-07-30T05:43:13;3.80;;;3.28;;
18818;SDS011;9537;45.594;9.294;2023-07-30T05:44:13;4.57;;;3.72;;
18818;SDS011;9537;45.594;9.294;2023-07-30T05:45:14;5.07;;;3.40;;
18818;SDS011;9537;45.594;9.294;2023-07-30T05:46:16;5.80;;;3.65;;
18818;SDS011;9537;45.594;9.294;2023-07-30T05:47:17;5.97;;;4.18;;
18818;SDS011;9537;45.594;9.294;2023-07-30T05:48:18;4.90;;;3.65;;
18818;SDS011;9537;45.594;9.294;2023-07-30T05:49:19;4.80;;;3.30;;
18818;SDS011;9537;45.594;9.294;2023-07-30T05:50:20;6.30;;;3.78;;
18818;SDS011;9537;45.594;9.294;2023-07-30T05:51:21;5.32;;;3.80;;
18818;SDS011;9537;45.594;9.294;2023-07-30T05:52:22;5.45;;;3.40;;
18818;SDS011;9537;45.594;9.294;2023-07-30T05:53:24;3.92;;;3.40;;
18818;SDS011;9537;45.594;9.294;2023-07-30T05:54:25;5.05;;;4.15;;
18818;SDS011;9537;45.594;9.294;2023-07-30T05:55:26;4.13;;;3.72;;
18818;SDS011;9537;45.594;9.294;2023-07-30T05:56:27;4.25;;;3.85;;
18818;SDS011;9537;45.594;9.294;2023-07-30T05:57:29;5.50;;;4.00;;
18818;SDS011;9537;45.594;9.294;2023-07-30T05:58:31;4.38;;;3.97;;
18818;SDS011;9537;45.594;9.294;2023-07-30T05:59:33;4.63;;;3.83;;
18818;SDS011;9537;45.594;9.294;2023-07-30T06:00:34;7.10;;;4.18;;
18818;SDS011;9537;45.594;9.294;2023-07-30T06:01:36;4.22;;;3.83;;
18818;SDS011;9537;45.594;9.294;2023-07-30T06:02:37;4.38;;;3.72;;
18818;SDS011;9537;45.594;9.294;2023-07-30T06:03:39;5.25;;;3.47;;
18818;SDS011;9537;45.594;9.294;2023-07-30T06:04:39;4.75;;;4.10;;
18818;SDS011;9537;45.594;9.294;2023-07-30T06:05:41;4.68;;;3.33;;
18818;SDS011;9537;45.594;9.294;2023-07-30T06:06:42;5.95;;;4.55;;
18818;SDS011;9537;45.594;9.294;2023-07-30T06:07:44;5.30;;;4.55;;
18818;SDS011;9537;45.594;9.294;2023-07-30T06:08:45;4.65;;;3.88;;
18818;SDS011;9537;45.594;9.294;2023-07-30T06:09:46;4.20;;;3.80;;
18818;SDS011;9537;45.594;9.294;2023-07-30T06:10:47;3.88;;;3.47;;
18818;SDS011;9537;45.594;9.294;2023-07-30T06:11:48;5.82;;;4.20;;
18818;SDS011;9537;45.594;9.294;2023-07-30T06:12:50;6.38;;;3.95;;
18818;SDS011;9537;45.594;9.294;2023-07-30T06:13:52;5.45;;;4.00;;
18818;SDS011;9537;45.594;9.294;2023-07-30T06:14:54;6.82;;;4.82;;
18818;SDS011;9537;45.594;9.294;2023-07-30T06:15:54;4.30;;;3.50;;